sensor_id;sensor_type;location;lat;lon;timestamp;P1;durP1;ratioP1;P2;durP2;ratioP2
74102;SDS011;62853;46.166;3.640;2023-12-20T00:01:02;5.22;;;2.92;;
74102;SDS011;62853;46.166;3.640;2023-12-20T00:03:28;6.07;;;3.65;;
74102;SDS011;62853;46.166;3.640;2023-12-20T00:05:53;7.10;;;3.17;;
74102;SDS011;62853;46.166;3.640;2023-12-20T00:08:19;7.53;;;3.80;;
74102;SDS011;62853;46.166;3.640;2023-12-20T00:10:44;6.18;;;3.33;;
74102;SDS011;62853;46.166;3.640;2023-12-20T00:13:10;7.05;;;2.72;;
74102;SDS011;62853;46.166;3.640;2023-12-20T00:15:35;4.93;;;2.63;;
74102;SDS011;62853;46.166;3.640;2023-12-20T00:18:01;6.40;;;2.67;;
74102;SDS011;62853;46.166;3.640;2023-12-20T00:20:27;6.45;;;3.03;;
74102;SDS011;62853;46.166;3.640;2023-12-20T00:22:54;5.70;;;2.53;;
74102;SDS011;62853;46.166;3.640;2023-12-20T00:25:21;4.68;;;2.38;;
74102;SDS011;62853;46.166;3.640;2023-12-20T00:27:46;5.07;;;2.55;;
74102;SDS011;62853;46.166;3.640;2023-12-20T00:30:11;5.05;;;2.13;;
74102;SDS011;62853;46.166;3.640;2023-12-20T00:32:37;5.30;;;2.60;;
74102;SDS011;62853;46.166;3.640;2023-12-20T00:35:03;6.35;;;2.50;;
74102;SDS011;62853;46.166;3.640;2023-12-20T00:37:28;6.50;;;2.00;;
74102;SDS011;62853;46.166;3.640;2023-12-20T00:39:54;7.03;;;2.30;;
74102;SDS011;62853;46.166;3.640;2023-12-20T00:42:19;4.80;;;2.00;;
74102;SDS011;62853;46.166;3.640;2023-12-20T00:44:44;6.63;;;2.10;;
74102;SDS011;62853;46.166;3.640;2023-12-20T00:47:10;4.65;;;2.35;;
74102;SDS011;62853;46.166;3.640;2023-12-20T00:49:35;4.38;;;1.88;;
74102;SDS011;62853;46.166;3.640;2023-12-20T00:52:00;4.75;;;2.40;;
74102;SDS011;62853;46.166;3.640;2023-12-20T00:54:26;4.32;;;1.80;;
74102;SDS011;62853;46.166;3.640;2023-12-20T00:56:51;5.80;;;1.75;;
74102;SDS011;62853;46.166;3.640;2023-12-20T00:59:16;7.60;;;2.97;;
74102;SDS011;62853;46.166;3.640;2023-12-20T01:01:43;5.82;;;1.80;;
74102;SDS011;62853;46.166;3.640;2023-12-20T01:04:08;5.53;;;1.80;;
74102;SDS011;62853;46.166;3.640;2023-12-20T01:06:33;4.68;;;1.92;;
74102;SDS011;62853;46.166;3.640;2023-12-20T01:08:59;7.85;;;2.35;;
74102;SDS011;62853;46.166;3.640;2023-12-20T01:11:24;2.78;;;1.60;;
74102;SDS011;62853;46.166;3.640;2023-12-20T01:13:49;4.72;;;1.77;;
74102;SDS011;62853;46.166;3.640;2023-12-20T01:16:15;4.25;;;1.75;;
74102;SDS011;62853;46.166;3.640;2023-12-20T01:18:40;4.28;;;1.45;;
74102;SDS011;62853;46.166;3.640;2023-12-20T01:21:06;5.45;;;1.70;;
74102;SDS011;62853;46.166;3.640;2023-12-20T01:23:31;4.78;;;1.75;;
74102;SDS011;62853;46.166;3.640;2023-12-20T01:25:57;4.75;;;1.63;;
74102;SDS011;62853;46.166;3.640;2023-12-20T01:28:24;3.60;;;1.75;;
74102;SDS011;62853;46.166;3.640;2023-12-20T01:30:50;4.68;;;1.63;;
74102;SDS011;62853;46.166;3.640;2023-12-20T01:33:15;6.80;;;1.65;;
74102;SDS011;62853;46.166;3.640;2023-12-20T01:35:41;6.32;;;1.30;;
74102;SDS011;62853;46.166;3.640;2023-12-20T01:38:06;4.20;;;1.40;;
74102;SDS011;62853;46.166;3.640;2023-12-20T01:40:32;3.67;;;1.33;;
74102;SDS011;62853;46.166;3.640;2023-12-20T01:43:01;8.45;;;1.58;;
74102;SDS011;62853;46.166;3.640;2023-12-20T01:47:55;4.13;;;1.30;;
74102;SDS011;62853;46.166;3.640;2023-12-20T01:50:23;7.88;;;1.50;;
74102;SDS011;62853;46.166;3.640;2023-12-20T01:52:48;4.78;;;1.90;;
74102;SDS011;62853;46.166;3.640;2023-12-20T01:55:17;6.15;;;1.35;;
74102;SDS011;62853;46.166;3.640;2023-12-20T01:57:44;4.30;;;1.40;;
74102;SDS011;62853;46.166;3.640;2023-12-20T02:00:10;5.60;;;1.48;;
74102;SDS011;62853;46.166;3.640;2023-12-20T02:02:39;4.85;;;1.45;;
74102;SDS011;62853;46.166;3.640;2023-12-20T02:05:05;4.82;;;1.50;;
74102;SDS011;62853;46.166;3.640;2023-12-20T02:07:31;5.30;;;1.30;;
74102;SDS011;62853;46.166;3.640;2023-12-20T02:09:56;4.07;;;1.40;;
74102;SDS011;62853;46.166;3.640;2023-12-20T02:12:22;5.47;;;2.30;;
74102;SDS011;62853;46.166;3.640;2023-12-20T02:14:48;6.20;;;1.50;;
74102;SDS011;62853;46.166;3.640;2023-12-20T02:17:15;5.60;;;1.55;;
74102;SDS011;62853;46.166;3.640;2023-12-20T02:19:41;7.15;;;1.65;;
74102;SDS011;62853;46.166;3.640;2023-12-20T02:24:35;6.82;;;1.50;;
74102;SDS011;62853;46.166;3.640;2023-12-20T02:27:00;3.40;;;1.33;;
74102;SDS011;62853;46.166;3.640;2023-12-20T02:29:26;5.40;;;1.50;;
74102;SDS011;62853;46.166;3.640;2023-12-20T02:31:52;4.22;;;1.50;;
74102;SDS011;62853;46.166;3.640;2023-12-20T02:34:17;3.50;;;1.20;;
74102;SDS011;62853;46.166;3.640;2023-12-20T02:36:42;3.25;;;1.08;;
74102;SDS011;62853;46.166;3.640;2023-12-20T02:39:08;7.05;;;1.60;;
74102;SDS011;62853;46.166;3.640;2023-12-20T02:41:33;5.55;;;2.00;;
74102;SDS011;62853;46.166;3.640;2023-12-20T02:43:58;5.78;;;1.50;;
74102;SDS011;62853;46.166;3.640;2023-12-20T02:46:24;5.82;;;1.30;;
74102;SDS011;62853;46.166;3.640;2023-12-20T02:48:49;5.93;;;1.42;;
74102;SDS011;62853;46.166;3.640;2023-12-20T02:51:14;4.03;;;1.63;;
74102;SDS011;62853;46.166;3.640;2023-12-20T02:53:40;4.68;;;1.40;;
74102;SDS011;62853;46.166;3.640;2023-12-20T02:56:05;3.85;;;1.17;;
74102;SDS011;62853;46.166;3.640;2023-12-20T02:58:31;8.07;;;1.50;;
74102;SDS011;62853;46.166;3.640;2023-12-20T03:00:56;6.18;;;1.60;;
74102;SDS011;62853;46.166;3.640;2023-12-20T03:03:21;3.75;;;1.17;;
74102;SDS011;62853;46.166;3.640;2023-12-20T03:05:47;6.05;;;1.27;;
74102;SDS011;62853;46.166;3.640;2023-12-20T03:08:12;5.93;;;1.58;;
74102;SDS011;62853;46.166;3.640;2023-12-20T03:10:37;4.25;;;1.40;;
74102;SDS011;62853;46.166;3.640;2023-12-20T03:13:03;5.88;;;1.50;;
74102;SDS011;62853;46.166;3.640;2023-12-20T03:15:28;4.65;;;1.80;;
74102;SDS011;62853;46.166;3.640;2023-12-20T03:17:54;4.15;;;1.25;;
74102;SDS011;62853;46.166;3.640;2023-12-20T03:20:19;5.70;;;1.80;;
74102;SDS011;62853;46.166;3.640;2023-12-20T03:22:44;6.03;;;1.70;;
74102;SDS011;62853;46.166;3.640;2023-12-20T03:25:09;6.47;;;1.65;;
74102;SDS011;62853;46.166;3.640;2023-12-20T03:27:36;4.95;;;1.58;;
74102;SDS011;62853;46.166;3.640;2023-12-20T03:30:04;4.80;;;2.28;;
74102;SDS011;62853;46.166;3.640;2023-12-20T03:32:30;4.78;;;1.45;;
74102;SDS011;62853;46.166;3.640;2023-12-20T03:34:55;7.85;;;1.75;;
74102;SDS011;62853;46.166;3.640;2023-12-20T03:37:21;3.97;;;1.58;;
74102;SDS011;62853;46.166;3.640;2023-12-20T03:39:47;5.18;;;1.60;;
74102;SDS011;62853;46.166;3.640;2023-12-20T03:42:12;4.82;;;1.63;;
74102;SDS011;62853;46.166;3.640;2023-12-20T03:44:38;5.30;;;1.77;;
74102;SDS011;62853;46.166;3.640;2023-12-20T03:47:04;5.93;;;1.85;;
74102;SDS011;62853;46.166;3.640;2023-12-20T03:49:30;5.15;;;1.75;;
74102;SDS011;62853;46.166;3.640;2023-12-20T03:51:55;5.88;;;1.77;;
74102;SDS011;62853;46.166;3.640;2023-12-20T03:54:21;6.00;;;2.13;;
74102;SDS011;62853;46.166;3.640;2023-12-20T03:56:46;6.57;;;2.08;;
74102;SDS011;62853;46.166;3.640;2023-12-20T03:59:11;7.53;;;1.80;;
74102;SDS011;62853;46.166;3.640;2023-12-20T04:01:37;7.75;;;1.95;;
74102;SDS011;62853;46.166;3.640;2023-12-20T04:04:02;7.05;;;2.17;;
74102;SDS011;62853;46.166;3.640;2023-12-20T04:06:27;9.65;;;1.88;;
74102;SDS011;62853;46.166;3.640;2023-12-20T04:08:53;9.48;;;1.83;;
74102;SDS011;62853;46.166;3.640;2023-12-20T04:11:18;5.55;;;1.60;;
74102;SDS011;62853;46.166;3.640;2023-12-20T04:13:44;6.55;;;2.13;;
74102;SDS011;62853;46.166;3.640;2023-12-20T04:16:09;5.97;;;2.15;;
74102;SDS011;62853;46.166;3.640;2023-12-20T04:18:34;7.55;;;2.15;;
74102;SDS011;62853;46.166;3.640;2023-12-20T04:21:00;4.20;;;1.50;;
74102;SDS011;62853;46.166;3.640;2023-12-20T04:23:25;6.68;;;1.70;;
74102;SDS011;62853;46.166;3.640;2023-12-20T04:25:50;3.97;;;1.90;;
74102;SDS011;62853;46.166;3.640;2023-12-20T04:28:16;6.07;;;1.80;;
74102;SDS011;62853;46.166;3.640;2023-12-20T04:30:42;7.38;;;2.13;;
74102;SDS011;62853;46.166;3.640;2023-12-20T04:33:07;8.95;;;1.88;;
74102;SDS011;62853;46.166;3.640;2023-12-20T04:35:32;6.70;;;1.80;;
74102;SDS011;62853;46.166;3.640;2023-12-20T04:37:58;8.70;;;2.30;;
74102;SDS011;62853;46.166;3.640;2023-12-20T04:40:23;7.82;;;2.10;;
74102;SDS011;62853;46.166;3.640;2023-12-20T04:42:49;5.78;;;1.80;;
74102;SDS011;62853;46.166;3.640;2023-12-20T04:45:14;4.53;;;1.85;;
74102;SDS011;62853;46.166;3.640;2023-12-20T04:47:41;6.63;;;2.00;;
74102;SDS011;62853;46.166;3.640;2023-12-20T04:50:07;5.20;;;2.00;;
74102;SDS011;62853;46.166;3.640;2023-12-20T04:52:33;4.85;;;1.63;;
74102;SDS011;62853;46.166;3.640;2023-12-20T04:54:58;5.88;;;2.30;;
74102;SDS011;62853;46.166;3.640;2023-12-20T04:57:24;8.50;;;2.08;;
74102;SDS011;62853;46.166;3.640;2023-12-20T04:59:49;5.78;;;2.08;;
74102;SDS011;62853;46.166;3.640;2023-12-20T05:02:15;5.07;;;1.90;;
74102;SDS011;62853;46.166;3.640;2023-12-20T05:04:40;7.53;;;1.83;;
74102;SDS011;62853;46.166;3.640;2023-12-20T05:07:06;5.22;;;2.00;;
74102;SDS011;62853;46.166;3.640;2023-12-20T05:09:32;6.32;;;1.70;;
74102;SDS011;62853;46.166;3.640;2023-12-20T05:11:58;6.10;;;2.05;;
74102;SDS011;62853;46.166;3.640;2023-12-20T05:14:23;6.30;;;1.77;;
74102;SDS011;62853;46.166;3.640;2023-12-20T05:16:50;6.85;;;2.67;;
74102;SDS011;62853;46.166;3.640;2023-12-20T05:19:15;10.52;;;2.42;;
74102;SDS011;62853;46.166;3.640;2023-12-20T05:21:41;4.85;;;2.33;;
74102;SDS011;62853;46.166;3.640;2023-12-20T05:24:06;9.07;;;2.70;;
74102;SDS011;62853;46.166;3.640;2023-12-20T05:26:32;8.27;;;2.47;;
74102;SDS011;62853;46.166;3.640;2023-12-20T05:28:57;6.10;;;2.13;;
74102;SDS011;62853;46.166;3.640;2023-12-20T05:31:23;10.45;;;2.63;;
74102;SDS011;62853;46.166;3.640;2023-12-20T05:33:48;7.15;;;2.10;;
74102;SDS011;62853;46.166;3.640;2023-12-20T05:36:13;6.22;;;2.45;;
74102;SDS011;62853;46.166;3.640;2023-12-20T05:38:40;6.53;;;2.20;;
74102;SDS011;62853;46.166;3.640;2023-12-20T05:41:05;6.35;;;2.00;;
74102;SDS011;62853;46.166;3.640;2023-12-20T05:43:31;7.53;;;2.40;;
74102;SDS011;62853;46.166;3.640;2023-12-20T05:45:56;6.90;;;2.20;;
74102;SDS011;62853;46.166;3.640;2023-12-20T05:48:23;7.68;;;2.15;;
74102;SDS011;62853;46.166;3.640;2023-12-20T05:50:48;9.05;;;2.88;;
74102;SDS011;62853;46.166;3.640;2023-12-20T05:53:14;8.93;;;2.10;;
74102;SDS011;62853;46.166;3.640;2023-12-20T05:55:39;9.25;;;2.70;;
74102;SDS011;62853;46.166;3.640;2023-12-20T05:58:05;11.63;;;2.50;;
74102;SDS011;62853;46.166;3.640;2023-12-20T06:00:30;6.40;;;2.05;;
74102;SDS011;62853;46.166;3.640;2023-12-20T06:02:56;9.75;;;2.33;;
74102;SDS011;62853;46.166;3.640;2023-12-20T06:05:21;8.52;;;2.58;;
74102;SDS011;62853;46.166;3.640;2023-12-20T06:07:46;7.15;;;1.98;;
74102;SDS011;62853;46.166;3.640;2023-12-20T06:10:13;9.25;;;2.28;;
74102;SDS011;62853;46.166;3.640;2023-12-20T06:12:39;7.80;;;2.13;;
74102;SDS011;62853;46.166;3.640;2023-12-20T06:15:04;6.32;;;2.17;;
74102;SDS011;62853;46.166;3.640;2023-12-20T06:17:30;6.18;;;1.95;;
74102;SDS011;62853;46.166;3.640;2023-12-20T06:19:57;6.30;;;2.10;;
74102;SDS011;62853;46.166;3.640;2023-12-20T06:22:22;7.18;;;2.42;;
74102;SDS011;62853;46.166;3.640;2023-12-20T06:24:47;7.88;;;2.40;;
74102;SDS011;62853;46.166;3.640;2023-12-20T06:27:13;9.25;;;2.88;;
74102;SDS011;62853;46.166;3.640;2023-12-20T06:29:38;6.63;;;2.17;;
74102;SDS011;62853;46.166;3.640;2023-12-20T06:32:04;10.45;;;2.40;;
74102;SDS011;62853;46.166;3.640;2023-12-20T06:34:29;6.32;;;2.53;;
74102;SDS011;62853;46.166;3.640;2023-12-20T06:36:55;10.77;;;3.13;;
74102;SDS011;62853;46.166;3.640;2023-12-20T06:39:20;7.97;;;2.30;;
74102;SDS011;62853;46.166;3.640;2023-12-20T06:41:45;8.15;;;2.00;;
74102;SDS011;62853;46.166;3.640;2023-12-20T06:44:11;10.88;;;2.17;;
74102;SDS011;62853;46.166;3.640;2023-12-20T06:46:36;7.07;;;2.88;;
74102;SDS011;62853;46.166;3.640;2023-12-20T06:49:01;7.38;;;2.20;;
74102;SDS011;62853;46.166;3.640;2023-12-20T06:51:27;10.38;;;2.80;;
74102;SDS011;62853;46.166;3.640;2023-12-20T06:53:53;8.80;;;2.45;;
74102;SDS011;62853;46.166;3.640;2023-12-20T06:56:18;8.23;;;2.10;;
74102;SDS011;62853;46.166;3.640;2023-12-20T06:58:44;8.00;;;2.00;;
74102;SDS011;62853;46.166;3.640;2023-12-20T07:01:13;8.43;;;2.05;;
74102;SDS011;62853;46.166;3.640;2023-12-20T07:03:39;6.55;;;2.33;;
74102;SDS011;62853;46.166;3.640;2023-12-20T07:06:05;6.38;;;3.00;;
74102;SDS011;62853;46.166;3.640;2023-12-20T07:08:30;6.70;;;2.10;;
74102;SDS011;62853;46.166;3.640;2023-12-20T07:10:56;7.07;;;2.10;;
74102;SDS011;62853;46.166;3.640;2023-12-20T07:13:21;6.25;;;2.42;;
74102;SDS011;62853;46.166;3.640;2023-12-20T07:15:47;6.97;;;2.45;;
74102;SDS011;62853;46.166;3.640;2023-12-20T07:18:13;6.35;;;1.90;;
74102;SDS011;62853;46.166;3.640;2023-12-20T07:20:38;7.13;;;2.05;;
74102;SDS011;62853;46.166;3.640;2023-12-20T07:23:04;10.20;;;2.80;;
74102;SDS011;62853;46.166;3.640;2023-12-20T07:25:29;7.90;;;2.33;;
74102;SDS011;62853;46.166;3.640;2023-12-20T07:27:57;9.15;;;2.20;;
74102;SDS011;62853;46.166;3.640;2023-12-20T07:30:23;8.00;;;2.60;;
74102;SDS011;62853;46.166;3.640;2023-12-20T07:32:48;6.30;;;1.88;;
74102;SDS011;62853;46.166;3.640;2023-12-20T07:35:14;5.32;;;2.00;;
74102;SDS011;62853;46.166;3.640;2023-12-20T07:37:40;6.85;;;2.30;;
74102;SDS011;62853;46.166;3.640;2023-12-20T07:40:06;8.02;;;1.98;;
74102;SDS011;62853;46.166;3.640;2023-12-20T07:42:31;6.40;;;1.90;;
74102;SDS011;62853;46.166;3.640;2023-12-20T07:44:57;8.60;;;2.40;;
74102;SDS011;62853;46.166;3.640;2023-12-20T07:47:23;5.13;;;1.98;;
74102;SDS011;62853;46.166;3.640;2023-12-20T07:49:50;9.27;;;2.20;;
74102;SDS011;62853;46.166;3.640;2023-12-20T07:52:16;7.60;;;2.17;;
74102;SDS011;62853;46.166;3.640;2023-12-20T07:54:45;10.05;;;2.47;;
74102;SDS011;62853;46.166;3.640;2023-12-20T07:57:11;9.20;;;2.88;;
74102;SDS011;62853;46.166;3.640;2023-12-20T07:59:37;8.18;;;2.38;;
74102;SDS011;62853;46.166;3.640;2023-12-20T08:02:02;8.80;;;2.35;;
74102;SDS011;62853;46.166;3.640;2023-12-20T08:04:28;5.38;;;2.00;;
74102;SDS011;62853;46.166;3.640;2023-12-20T08:06:53;7.40;;;2.15;;
74102;SDS011;62853;46.166;3.640;2023-12-20T08:09:18;12.98;;;2.38;;
74102;SDS011;62853;46.166;3.640;2023-12-20T08:11:45;7.93;;;2.33;;
74102;SDS011;62853;46.166;3.640;2023-12-20T08:14:11;9.40;;;2.58;;
74102;SDS011;62853;46.166;3.640;2023-12-20T08:16:36;8.38;;;2.20;;
74102;SDS011;62853;46.166;3.640;2023-12-20T08:19:02;7.72;;;2.20;;
74102;SDS011;62853;46.166;3.640;2023-12-20T08:21:27;5.30;;;1.75;;
74102;SDS011;62853;46.166;3.640;2023-12-20T08:23:52;7.18;;;2.40;;
74102;SDS011;62853;46.166;3.640;2023-12-20T08:26:21;7.28;;;3.05;;
74102;SDS011;62853;46.166;3.640;2023-12-20T08:28:47;9.23;;;2.53;;
74102;SDS011;62853;46.166;3.640;2023-12-20T08:31:17;7.50;;;2.33;;
74102;SDS011;62853;46.166;3.640;2023-12-20T08:33:46;10.95;;;2.80;;
74102;SDS011;62853;46.166;3.640;2023-12-20T08:36:12;7.43;;;2.38;;
74102;SDS011;62853;46.166;3.640;2023-12-20T08:38:38;6.00;;;2.45;;
74102;SDS011;62853;46.166;3.640;2023-12-20T08:41:04;9.25;;;2.58;;
74102;SDS011;62853;46.166;3.640;2023-12-20T08:43:35;8.15;;;2.38;;
74102;SDS011;62853;46.166;3.640;2023-12-20T08:46:01;7.68;;;1.85;;
74102;SDS011;62853;46.166;3.640;2023-12-20T08:48:27;9.57;;;2.50;;
74102;SDS011;62853;46.166;3.640;2023-12-20T08:50:53;9.35;;;2.50;;
74102;SDS011;62853;46.166;3.640;2023-12-20T08:53:18;6.00;;;1.90;;
74102;SDS011;62853;46.166;3.640;2023-12-20T08:55:44;6.75;;;2.15;;
74102;SDS011;62853;46.166;3.640;2023-12-20T08:58:09;6.68;;;2.05;;
74102;SDS011;62853;46.166;3.640;2023-12-20T09:00:35;7.15;;;2.33;;
74102;SDS011;62853;46.166;3.640;2023-12-20T09:03:01;9.40;;;2.20;;
74102;SDS011;62853;46.166;3.640;2023-12-20T09:05:27;5.25;;;2.00;;
74102;SDS011;62853;46.166;3.640;2023-12-20T09:07:53;7.93;;;2.65;;
74102;SDS011;62853;46.166;3.640;2023-12-20T09:10:18;5.97;;;1.92;;
74102;SDS011;62853;46.166;3.640;2023-12-20T09:12:47;7.00;;;2.15;;
74102;SDS011;62853;46.166;3.640;2023-12-20T09:15:15;8.80;;;2.10;;
74102;SDS011;62853;46.166;3.640;2023-12-20T09:17:40;7.72;;;1.88;;
74102;SDS011;62853;46.166;3.640;2023-12-20T09:20:06;7.75;;;2.08;;
74102;SDS011;62853;46.166;3.640;2023-12-20T09:22:33;6.88;;;2.20;;
74102;SDS011;62853;46.166;3.640;2023-12-20T09:24:59;9.75;;;2.53;;
74102;SDS011;62853;46.166;3.640;2023-12-20T09:27:24;7.45;;;2.00;;
74102;SDS011;62853;46.166;3.640;2023-12-20T09:29:50;8.57;;;1.98;;
74102;SDS011;62853;46.166;3.640;2023-12-20T09:32:15;6.78;;;2.20;;
74102;SDS011;62853;46.166;3.640;2023-12-20T09:34:41;7.82;;;2.70;;
74102;SDS011;62853;46.166;3.640;2023-12-20T09:37:06;11.48;;;2.38;;
74102;SDS011;62853;46.166;3.640;2023-12-20T09:39:32;12.77;;;2.50;;
74102;SDS011;62853;46.166;3.640;2023-12-20T09:42:02;9.07;;;2.20;;
74102;SDS011;62853;46.166;3.640;2023-12-20T09:44:29;8.85;;;2.15;;
74102;SDS011;62853;46.166;3.640;2023-12-20T09:46:56;9.60;;;2.45;;
74102;SDS011;62853;46.166;3.640;2023-12-20T09:49:22;6.68;;;2.08;;
74102;SDS011;62853;46.166;3.640;2023-12-20T09:51:49;6.60;;;2.00;;
74102;SDS011;62853;46.166;3.640;2023-12-20T09:54:16;9.55;;;2.20;;
74102;SDS011;62853;46.166;3.640;2023-12-20T09:56:42;7.95;;;2.15;;
74102;SDS011;62853;46.166;3.640;2023-12-20T09:59:08;7.93;;;2.10;;
74102;SDS011;62853;46.166;3.640;2023-12-20T10:01:34;9.65;;;2.22;;
74102;SDS011;62853;46.166;3.640;2023-12-20T10:04:01;8.38;;;2.05;;
74102;SDS011;62853;46.166;3.640;2023-12-20T10:06:40;8.52;;;2.17;;
74102;SDS011;62853;46.166;3.640;2023-12-20T10:11:32;10.43;;;2.55;;
74102;SDS011;62853;46.166;3.640;2023-12-20T10:14:00;6.32;;;1.80;;
74102;SDS011;62853;46.166;3.640;2023-12-20T10:16:27;8.93;;;2.30;;
74102;SDS011;62853;46.166;3.640;2023-12-20T10:18:53;8.25;;;2.25;;
74102;SDS011;62853;46.166;3.640;2023-12-20T10:21:19;7.28;;;2.08;;
74102;SDS011;62853;46.166;3.640;2023-12-20T10:23:45;8.15;;;1.90;;
74102;SDS011;62853;46.166;3.640;2023-12-20T10:26:17;8.00;;;2.38;;
74102;SDS011;62853;46.166;3.640;2023-12-20T10:28:45;10.23;;;2.35;;
74102;SDS011;62853;46.166;3.640;2023-12-20T10:31:10;8.50;;;2.33;;
74102;SDS011;62853;46.166;3.640;2023-12-20T10:33:36;9.85;;;3.45;;
74102;SDS011;62853;46.166;3.640;2023-12-20T10:36:01;8.88;;;2.17;;
74102;SDS011;62853;46.166;3.640;2023-12-20T10:38:27;6.40;;;2.08;;
74102;SDS011;62853;46.166;3.640;2023-12-20T10:41:08;7.80;;;2.58;;
74102;SDS011;62853;46.166;3.640;2023-12-20T10:43:35;8.02;;;2.20;;
74102;SDS011;62853;46.166;3.640;2023-12-20T10:46:03;8.27;;;2.63;;
74102;SDS011;62853;46.166;3.640;2023-12-20T10:48:28;5.95;;;1.88;;
74102;SDS011;62853;46.166;3.640;2023-12-20T10:50:57;7.72;;;2.20;;
74102;SDS011;62853;46.166;3.640;2023-12-20T10:53:24;5.53;;;2.20;;
74102;SDS011;62853;46.166;3.640;2023-12-20T10:55:50;7.78;;;2.53;;
74102;SDS011;62853;46.166;3.640;2023-12-20T10:58:20;5.15;;;2.10;;
74102;SDS011;62853;46.166;3.640;2023-12-20T11:00:47;8.60;;;1.90;;
74102;SDS011;62853;46.166;3.640;2023-12-20T11:03:21;9.07;;;2.38;;
74102;SDS011;62853;46.166;3.640;2023-12-20T11:08:39;8.15;;;2.38;;
74102;SDS011;62853;46.166;3.640;2023-12-20T11:13:57;7.78;;;2.67;;
74102;SDS011;62853;46.166;3.640;2023-12-20T11:16:27;8.88;;;2.80;;
74102;SDS011;62853;46.166;3.640;2023-12-20T11:18:52;6.63;;;2.15;;
74102;SDS011;62853;46.166;3.640;2023-12-20T11:21:17;6.50;;;2.35;;
74102;SDS011;62853;46.166;3.640;2023-12-20T11:23:43;8.27;;;2.53;;
74102;SDS011;62853;46.166;3.640;2023-12-20T11:26:08;7.13;;;2.17;;
74102;SDS011;62853;46.166;3.640;2023-12-20T11:28:34;9.13;;;2.40;;
74102;SDS011;62853;46.166;3.640;2023-12-20T11:31:00;10.48;;;2.38;;
74102;SDS011;62853;46.166;3.640;2023-12-20T11:33:29;6.50;;;2.13;;
74102;SDS011;62853;46.166;3.640;2023-12-20T11:35:56;8.93;;;2.38;;
74102;SDS011;62853;46.166;3.640;2023-12-20T11:38:22;11.20;;;2.78;;
74102;SDS011;62853;46.166;3.640;2023-12-20T11:40:49;6.78;;;2.08;;
74102;SDS011;62853;46.166;3.640;2023-12-20T11:43:36;8.13;;;2.20;;
74102;SDS011;62853;46.166;3.640;2023-12-20T11:46:07;7.60;;;2.10;;
74102;SDS011;62853;46.166;3.640;2023-12-20T11:48:34;8.63;;;2.20;;
74102;SDS011;62853;46.166;3.640;2023-12-20T11:51:11;6.68;;;2.40;;
74102;SDS011;62853;46.166;3.640;2023-12-20T11:53:37;9.35;;;2.80;;
74102;SDS011;62853;46.166;3.640;2023-12-20T11:56:06;9.80;;;2.22;;
74102;SDS011;62853;46.166;3.640;2023-12-20T11:58:32;11.88;;;2.63;;
74102;SDS011;62853;46.166;3.640;2023-12-20T12:00:58;9.93;;;2.33;;
74102;SDS011;62853;46.166;3.640;2023-12-20T12:03:24;8.63;;;2.15;;
74102;SDS011;62853;46.166;3.640;2023-12-20T12:05:50;9.32;;;2.30;;
74102;SDS011;62853;46.166;3.640;2023-12-20T12:08:16;10.40;;;2.47;;
74102;SDS011;62853;46.166;3.640;2023-12-20T12:10:42;6.32;;;2.50;;
74102;SDS011;62853;46.166;3.640;2023-12-20T12:13:09;8.35;;;2.50;;
74102;SDS011;62853;46.166;3.640;2023-12-20T12:15:35;9.65;;;2.08;;
74102;SDS011;62853;46.166;3.640;2023-12-20T12:18:01;9.68;;;2.88;;
74102;SDS011;62853;46.166;3.640;2023-12-20T12:20:26;11.55;;;2.75;;
74102;SDS011;62853;46.166;3.640;2023-12-20T12:23:02;8.10;;;2.42;;
74102;SDS011;62853;46.166;3.640;2023-12-20T12:25:32;8.43;;;2.25;;
74102;SDS011;62853;46.166;3.640;2023-12-20T12:27:59;7.28;;;2.28;;
74102;SDS011;62853;46.166;3.640;2023-12-20T12:30:25;6.35;;;2.28;;
74102;SDS011;62853;46.166;3.640;2023-12-20T12:32:51;9.60;;;2.45;;
74102;SDS011;62853;46.166;3.640;2023-12-20T12:35:17;7.88;;;1.90;;
74102;SDS011;62853;46.166;3.640;2023-12-20T12:37:43;9.00;;;2.40;;
74102;SDS011;62853;46.166;3.640;2023-12-20T12:40:12;6.70;;;1.92;;
74102;SDS011;62853;46.166;3.640;2023-12-20T12:42:39;7.60;;;2.20;;
74102;SDS011;62853;46.166;3.640;2023-12-20T12:45:06;7.63;;;2.72;;
74102;SDS011;62853;46.166;3.640;2023-12-20T12:47:32;9.63;;;2.58;;
74102;SDS011;62853;46.166;3.640;2023-12-20T12:49:59;8.85;;;2.47;;
74102;SDS011;62853;46.166;3.640;2023-12-20T12:52:24;8.23;;;2.30;;
74102;SDS011;62853;46.166;3.640;2023-12-20T12:54:51;7.20;;;2.40;;
74102;SDS011;62853;46.166;3.640;2023-12-20T12:57:16;6.50;;;2.15;;
74102;SDS011;62853;46.166;3.640;2023-12-20T12:59:42;10.63;;;2.60;;
74102;SDS011;62853;46.166;3.640;2023-12-20T13:02:09;7.75;;;2.60;;
74102;SDS011;62853;46.166;3.640;2023-12-20T13:04:34;7.40;;;2.45;;
74102;SDS011;62853;46.166;3.640;2023-12-20T13:06:59;9.82;;;2.85;;
74102;SDS011;62853;46.166;3.640;2023-12-20T13:09:25;11.18;;;2.65;;
74102;SDS011;62853;46.166;3.640;2023-12-20T13:11:50;7.45;;;2.42;;
74102;SDS011;62853;46.166;3.640;2023-12-20T13:14:16;8.80;;;3.05;;
74102;SDS011;62853;46.166;3.640;2023-12-20T13:16:42;8.68;;;2.80;;
74102;SDS011;62853;46.166;3.640;2023-12-20T13:19:07;8.70;;;2.50;;
74102;SDS011;62853;46.166;3.640;2023-12-20T13:21:33;9.80;;;3.10;;
74102;SDS011;62853;46.166;3.640;2023-12-20T13:23:58;7.20;;;2.70;;
74102;SDS011;62853;46.166;3.640;2023-12-20T13:26:24;9.25;;;2.88;;
74102;SDS011;62853;46.166;3.640;2023-12-20T13:28:49;9.90;;;2.85;;
74102;SDS011;62853;46.166;3.640;2023-12-20T13:31:15;11.57;;;3.00;;
74102;SDS011;62853;46.166;3.640;2023-12-20T13:33:40;10.30;;;3.10;;
74102;SDS011;62853;46.166;3.640;2023-12-20T13:36:06;8.98;;;2.75;;
74102;SDS011;62853;46.166;3.640;2023-12-20T13:38:31;7.50;;;2.85;;
74102;SDS011;62853;46.166;3.640;2023-12-20T13:40:57;9.98;;;3.25;;
74102;SDS011;62853;46.166;3.640;2023-12-20T13:43:23;10.18;;;2.90;;
74102;SDS011;62853;46.166;3.640;2023-12-20T13:45:49;9.88;;;3.33;;
74102;SDS011;62853;46.166;3.640;2023-12-20T13:48:15;5.00;;;2.40;;
74102;SDS011;62853;46.166;3.640;2023-12-20T13:50:40;6.47;;;2.50;;
74102;SDS011;62853;46.166;3.640;2023-12-20T13:53:06;8.50;;;2.60;;
74102;SDS011;62853;46.166;3.640;2023-12-20T13:55:31;7.32;;;3.08;;
74102;SDS011;62853;46.166;3.640;2023-12-20T13:57:56;9.88;;;2.80;;
74102;SDS011;62853;46.166;3.640;2023-12-20T14:00:22;8.85;;;2.85;;
74102;SDS011;62853;46.166;3.640;2023-12-20T14:02:48;11.40;;;2.95;;
74102;SDS011;62853;46.166;3.640;2023-12-20T14:05:14;12.02;;;3.03;;
74102;SDS011;62853;46.166;3.640;2023-12-20T14:07:42;10.52;;;3.03;;
74102;SDS011;62853;46.166;3.640;2023-12-20T14:10:13;7.88;;;2.55;;
74102;SDS011;62853;46.166;3.640;2023-12-20T14:12:39;9.80;;;2.90;;
74102;SDS011;62853;46.166;3.640;2023-12-20T14:15:05;7.38;;;2.70;;
74102;SDS011;62853;46.166;3.640;2023-12-20T14:17:39;9.40;;;2.72;;
74102;SDS011;62853;46.166;3.640;2023-12-20T14:20:05;9.02;;;3.53;;
74102;SDS011;62853;46.166;3.640;2023-12-20T14:22:34;8.45;;;3.75;;
74102;SDS011;62853;46.166;3.640;2023-12-20T14:25:00;8.32;;;2.25;;
74102;SDS011;62853;46.166;3.640;2023-12-20T14:27:26;7.55;;;2.63;;
74102;SDS011;62853;46.166;3.640;2023-12-20T14:29:53;6.78;;;2.33;;
74102;SDS011;62853;46.166;3.640;2023-12-20T14:32:19;7.93;;;2.83;;
74102;SDS011;62853;46.166;3.640;2023-12-20T14:34:44;8.10;;;2.90;;
74102;SDS011;62853;46.166;3.640;2023-12-20T14:37:09;8.65;;;2.40;;
74102;SDS011;62853;46.166;3.640;2023-12-20T14:39:35;6.43;;;2.53;;
74102;SDS011;62853;46.166;3.640;2023-12-20T14:42:04;6.82;;;2.50;;
74102;SDS011;62853;46.166;3.640;2023-12-20T14:44:29;7.38;;;2.53;;
74102;SDS011;62853;46.166;3.640;2023-12-20T14:46:55;7.80;;;2.47;;
74102;SDS011;62853;46.166;3.640;2023-12-20T14:49:20;7.57;;;2.65;;
74102;SDS011;62853;46.166;3.640;2023-12-20T14:51:45;8.20;;;2.90;;